sensor_id;sensor_type;location;lat;lon;timestamp;P1;durP1;ratioP1;P2;durP2;ratioP2
351;SDS011;164;50.784;6.496;2022-10-31T00:02:05;6.82;;;6.32;;
351;SDS011;164;50.784;6.496;2022-10-31T00:04:32;8.30;;;6.40;;
351;SDS011;164;50.784;6.496;2022-10-31T00:06:59;8.55;;;6.82;;
351;SDS011;164;50.784;6.496;2022-10-31T00:09:27;7.70;;;5.75;;
351;SDS011;164;50.784;6.496;2022-10-31T00:11:54;7.35;;;6.18;;
351;SDS011;164;50.784;6.496;2022-10-31T00:14:21;7.45;;;5.18;;
351;SDS011;164;50.784;6.496;2022-10-31T00:16:48;8.43;;;6.45;;
351;SDS011;164;50.784;6.496;2022-10-31T00:19:15;7.22;;;5.20;;
351;SDS011;164;50.784;6.496;2022-10-31T00:21:42;9.52;;;6.93;;
351;SDS011;164;50.784;6.496;2022-10-31T00:24:10;8.00;;;6.80;;
351;SDS011;164;50.784;6.496;2022-10-31T00:26:38;8.10;;;5.40;;
351;SDS011;164;50.784;6.496;2022-10-31T00:29:05;8.00;;;5.25;;
351;SDS011;164;50.784;6.496;2022-10-31T00:31:32;7.60;;;6.22;;
351;SDS011;164;50.784;6.496;2022-10-31T00:33:59;9.00;;;5.80;;
351;SDS011;164;50.784;6.496;2022-10-31T00:36:28;11.93;;;6.55;;
351;SDS011;164;50.784;6.496;2022-10-31T00:38:55;8.52;;;6.18;;
351;SDS011;164;50.784;6.496;2022-10-31T00:41:21;7.57;;;5.38;;
351;SDS011;164;50.784;6.496;2022-10-31T00:43:50;8.63;;;6.43;;
351;SDS011;164;50.784;6.496;2022-10-31T00:46:17;9.50;;;6.43;;
351;SDS011;164;50.784;6.496;2022-10-31T00:48:43;6.82;;;6.28;;
351;SDS011;164;50.784;6.496;2022-10-31T00:51:10;8.07;;;6.32;;
351;SDS011;164;50.784;6.496;2022-10-31T00:53:37;10.45;;;5.72;;
351;SDS011;164;50.784;6.496;2022-10-31T00:56:05;9.15;;;6.20;;
351;SDS011;164;50.784;6.496;2022-10-31T00:58:32;7.45;;;6.03;;
351;SDS011;164;50.784;6.496;2022-10-31T01:01:00;8.65;;;5.38;;
351;SDS011;164;50.784;6.496;2022-10-31T01:03:28;7.28;;;5.60;;
351;SDS011;164;50.784;6.496;2022-10-31T01:05:57;5.90;;;4.70;;
351;SDS011;164;50.784;6.496;2022-10-31T01:08:25;10.38;;;5.30;;
351;SDS011;164;50.784;6.496;2022-10-31T01:11:02;6.18;;;5.38;;
351;SDS011;164;50.784;6.496;2022-10-31T01:13:32;8.85;;;5.63;;
351;SDS011;164;50.784;6.496;2022-10-31T01:16:00;6.90;;;5.70;;
351;SDS011;164;50.784;6.496;2022-10-31T01:18:29;5.38;;;4.90;;
351;SDS011;164;50.784;6.496;2022-10-31T01:20:57;8.40;;;5.88;;
351;SDS011;164;50.784;6.496;2022-10-31T01:23:25;7.30;;;4.57;;
351;SDS011;164;50.784;6.496;2022-10-31T01:26:02;10.90;;;5.75;;
351;SDS011;164;50.784;6.496;2022-10-31T01:28:31;7.68;;;6.18;;
351;SDS011;164;50.784;6.496;2022-10-31T01:31:03;6.38;;;5.72;;
351;SDS011;164;50.784;6.496;2022-10-31T01:33:32;8.32;;;6.63;;
351;SDS011;164;50.784;6.496;2022-10-31T01:35:59;10.73;;;6.55;;
351;SDS011;164;50.784;6.496;2022-10-31T01:38:26;8.68;;;5.50;;
351;SDS011;164;50.784;6.496;2022-10-31T01:40:53;6.95;;;5.30;;
351;SDS011;164;50.784;6.496;2022-10-31T01:43:19;6.68;;;5.70;;
351;SDS011;164;50.784;6.496;2022-10-31T01:45:49;7.72;;;5.60;;
351;SDS011;164;50.784;6.496;2022-10-31T01:48:20;9.93;;;5.85;;
351;SDS011;164;50.784;6.496;2022-10-31T01:50:53;10.73;;;7.20;;
351;SDS011;164;50.784;6.496;2022-10-31T01:53:21;10.45;;;6.50;;
351;SDS011;164;50.784;6.496;2022-10-31T01:55:49;8.25;;;5.57;;
351;SDS011;164;50.784;6.496;2022-10-31T01:58:18;11.23;;;7.13;;
351;SDS011;164;50.784;6.496;2022-10-31T02:00:49;9.23;;;6.80;;
351;SDS011;164;50.784;6.496;2022-10-31T02:03:20;8.38;;;6.20;;
351;SDS011;164;50.784;6.496;2022-10-31T02:05:48;7.85;;;6.60;;
351;SDS011;164;50.784;6.496;2022-10-31T02:08:16;6.80;;;5.90;;
351;SDS011;164;50.784;6.496;2022-10-31T02:10:47;9.82;;;6.85;;
351;SDS011;164;50.784;6.496;2022-10-31T02:13:15;9.13;;;7.05;;
351;SDS011;164;50.784;6.496;2022-10-31T02:15:42;9.30;;;5.47;;
351;SDS011;164;50.784;6.496;2022-10-31T02:18:11;8.75;;;6.78;;
351;SDS011;164;50.784;6.496;2022-10-31T02:20:42;11.68;;;6.88;;
351;SDS011;164;50.784;6.496;2022-10-31T02:23:31;8.95;;;6.53;;
351;SDS011;164;50.784;6.496;2022-10-31T02:26:28;9.80;;;7.18;;
351;SDS011;164;50.784;6.496;2022-10-31T02:29:15;9.35;;;6.90;;
351;SDS011;164;50.784;6.496;2022-10-31T02:32:01;13.02;;;6.93;;
351;SDS011;164;50.784;6.496;2022-10-31T02:34:34;6.63;;;6.15;;
351;SDS011;164;50.784;6.496;2022-10-31T02:37:07;10.63;;;6.80;;
351;SDS011;164;50.784;6.496;2022-10-31T02:39:39;8.52;;;6.28;;
351;SDS011;164;50.784;6.496;2022-10-31T02:42:13;9.80;;;5.90;;
351;SDS011;164;50.784;6.496;2022-10-31T02:44:45;7.97;;;6.75;;
351;SDS011;164;50.784;6.496;2022-10-31T02:47:17;10.48;;;6.90;;
351;SDS011;164;50.784;6.496;2022-10-31T02:49:50;10.63;;;7.38;;
351;SDS011;164;50.784;6.496;2022-10-31T02:52:23;8.45;;;6.07;;
351;SDS011;164;50.784;6.496;2022-10-31T02:54:52;8.80;;;6.40;;
351;SDS011;164;50.784;6.496;2022-10-31T02:57:20;11.07;;;6.75;;
351;SDS011;164;50.784;6.496;2022-10-31T02:59:52;9.68;;;6.53;;
351;SDS011;164;50.784;6.496;2022-10-31T03:02:36;11.60;;;6.65;;
351;SDS011;164;50.784;6.496;2022-10-31T03:05:19;9.07;;;6.82;;
351;SDS011;164;50.784;6.496;2022-10-31T03:07:59;7.68;;;7.30;;
351;SDS011;164;50.784;6.496;2022-10-31T03:10:35;10.55;;;6.85;;
351;SDS011;164;50.784;6.496;2022-10-31T03:13:08;9.10;;;7.07;;
351;SDS011;164;50.784;6.496;2022-10-31T03:15:38;10.73;;;6.93;;
351;SDS011;164;50.784;6.496;2022-10-31T03:18:10;10.35;;;6.05;;
351;SDS011;164;50.784;6.496;2022-10-31T03:20:44;7.70;;;6.68;;
351;SDS011;164;50.784;6.496;2022-10-31T03:23:13;8.68;;;7.25;;
351;SDS011;164;50.784;6.496;2022-10-31T03:25:42;8.43;;;7.43;;
351;SDS011;164;50.784;6.496;2022-10-31T03:28:11;12.82;;;7.72;;
351;SDS011;164;50.784;6.496;2022-10-31T03:30:41;12.88;;;8.05;;
351;SDS011;164;50.784;6.496;2022-10-31T03:33:13;9.75;;;8.30;;
351;SDS011;164;50.784;6.496;2022-10-31T03:35:44;11.48;;;8.30;;
351;SDS011;164;50.784;6.496;2022-10-31T03:38:15;9.45;;;7.30;;
351;SDS011;164;50.784;6.496;2022-10-31T03:40:44;11.25;;;8.85;;
351;SDS011;164;50.784;6.496;2022-10-31T03:43:15;9.98;;;8.60;;
351;SDS011;164;50.784;6.496;2022-10-31T03:45:45;13.48;;;8.35;;
351;SDS011;164;50.784;6.496;2022-10-31T03:48:14;11.73;;;8.50;;
351;SDS011;164;50.784;6.496;2022-10-31T03:50:45;11.68;;;7.65;;
351;SDS011;164;50.784;6.496;2022-10-31T03:53:19;9.75;;;7.95;;
351;SDS011;164;50.784;6.496;2022-10-31T03:55:51;9.13;;;8.15;;
351;SDS011;164;50.784;6.496;2022-10-31T03:58:24;13.05;;;8.27;;
351;SDS011;164;50.784;6.496;2022-10-31T04:00:56;9.75;;;7.93;;
351;SDS011;164;50.784;6.496;2022-10-31T04:03:28;7.95;;;7.55;;
351;SDS011;164;50.784;6.496;2022-10-31T04:05:58;9.60;;;7.45;;
351;SDS011;164;50.784;6.496;2022-10-31T04:08:29;9.43;;;7.15;;
351;SDS011;164;50.784;6.496;2022-10-31T04:10:59;9.10;;;6.75;;
351;SDS011;164;50.784;6.496;2022-10-31T04:13:29;12.13;;;7.65;;
351;SDS011;164;50.784;6.496;2022-10-31T04:15:59;9.50;;;7.25;;
351;SDS011;164;50.784;6.496;2022-10-31T04:18:28;9.02;;;7.13;;
351;SDS011;164;50.784;6.496;2022-10-31T04:21:01;7.28;;;6.63;;
351;SDS011;164;50.784;6.496;2022-10-31T04:23:29;8.43;;;6.93;;
351;SDS011;164;50.784;6.496;2022-10-31T04:25:57;7.28;;;6.32;;
351;SDS011;164;50.784;6.496;2022-10-31T04:28:24;8.98;;;7.18;;
351;SDS011;164;50.784;6.496;2022-10-31T04:30:51;11.27;;;7.35;;
351;SDS011;164;50.784;6.496;2022-10-31T04:33:18;9.65;;;7.78;;
351;SDS011;164;50.784;6.496;2022-10-31T04:35:46;11.95;;;7.60;;
351;SDS011;164;50.784;6.496;2022-10-31T04:38:13;12.82;;;8.00;;
351;SDS011;164;50.784;6.496;2022-10-31T04:40:40;9.10;;;7.00;;
351;SDS011;164;50.784;6.496;2022-10-31T04:43:07;8.50;;;7.30;;
351;SDS011;164;50.784;6.496;2022-10-31T04:45:33;9.50;;;7.80;;
351;SDS011;164;50.784;6.496;2022-10-31T04:48:01;9.82;;;7.47;;
351;SDS011;164;50.784;6.496;2022-10-31T04:50:28;8.63;;;6.90;;
351;SDS011;164;50.784;6.496;2022-10-31T04:52:56;8.07;;;6.43;;
351;SDS011;164;50.784;6.496;2022-10-31T04:55:23;8.20;;;6.60;;
351;SDS011;164;50.784;6.496;2022-10-31T04:57:49;8.32;;;7.13;;
351;SDS011;164;50.784;6.496;2022-10-31T05:00:17;9.15;;;7.53;;
351;SDS011;164;50.784;6.496;2022-10-31T05:02:46;8.18;;;6.78;;
351;SDS011;164;50.784;6.496;2022-10-31T05:05:15;8.95;;;7.10;;
351;SDS011;164;50.784;6.496;2022-10-31T05:07:44;7.70;;;6.90;;
351;SDS011;164;50.784;6.496;2022-10-31T05:10:14;7.45;;;6.75;;
351;SDS011;164;50.784;6.496;2022-10-31T05:12:46;12.05;;;8.02;;
351;SDS011;164;50.784;6.496;2022-10-31T05:15:14;8.00;;;7.55;;
351;SDS011;164;50.784;6.496;2022-10-31T05:17:41;10.35;;;7.70;;
351;SDS011;164;50.784;6.496;2022-10-31T05:20:08;9.18;;;6.75;;
351;SDS011;164;50.784;6.496;2022-10-31T05:22:35;12.57;;;8.43;;
351;SDS011;164;50.784;6.496;2022-10-31T05:25:03;7.85;;;7.43;;
351;SDS011;164;50.784;6.496;2022-10-31T05:27:31;9.30;;;7.03;;
351;SDS011;164;50.784;6.496;2022-10-31T05:29:58;7.00;;;6.70;;
351;SDS011;164;50.784;6.496;2022-10-31T05:32:25;10.00;;;5.93;;
351;SDS011;164;50.784;6.496;2022-10-31T05:34:52;8.43;;;6.60;;
351;SDS011;164;50.784;6.496;2022-10-31T05:37:19;7.57;;;6.65;;
351;SDS011;164;50.784;6.496;2022-10-31T05:39:46;9.13;;;6.80;;
351;SDS011;164;50.784;6.496;2022-10-31T05:42:12;8.95;;;7.80;;
351;SDS011;164;50.784;6.496;2022-10-31T05:44:41;11.25;;;7.97;;
351;SDS011;164;50.784;6.496;2022-10-31T05:47:08;11.18;;;7.43;;
351;SDS011;164;50.784;6.496;2022-10-31T05:49:36;10.52;;;8.25;;
351;SDS011;164;50.784;6.496;2022-10-31T05:52:03;11.27;;;8.50;;
351;SDS011;164;50.784;6.496;2022-10-31T05:54:30;12.40;;;8.35;;
351;SDS011;164;50.784;6.496;2022-10-31T05:56:56;8.20;;;6.97;;
351;SDS011;164;50.784;6.496;2022-10-31T05:59:23;10.10;;;7.28;;
351;SDS011;164;50.784;6.496;2022-10-31T06:01:51;11.15;;;7.25;;
351;SDS011;164;50.784;6.496;2022-10-31T06:04:19;13.50;;;8.70;;
351;SDS011;164;50.784;6.496;2022-10-31T06:06:45;12.50;;;7.55;;
351;SDS011;164;50.784;6.496;2022-10-31T06:09:12;12.90;;;7.97;;
351;SDS011;164;50.784;6.496;2022-10-31T06:11:39;10.68;;;8.10;;
351;SDS011;164;50.784;6.496;2022-10-31T06:14:06;10.15;;;8.23;;
351;SDS011;164;50.784;6.496;2022-10-31T06:16:33;12.27;;;8.90;;
351;SDS011;164;50.784;6.496;2022-10-31T06:19:02;11.32;;;9.43;;
351;SDS011;164;50.784;6.496;2022-10-31T06:21:28;11.80;;;9.32;;
351;SDS011;164;50.784;6.496;2022-10-31T06:23:55;10.75;;;9.20;;
351;SDS011;164;50.784;6.496;2022-10-31T06:26:23;10.57;;;9.10;;
351;SDS011;164;50.784;6.496;2022-10-31T06:28:50;15.18;;;9.50;;
351;SDS011;164;50.784;6.496;2022-10-31T06:31:17;9.80;;;8.63;;
351;SDS011;164;50.784;6.496;2022-10-31T06:33:44;14.45;;;9.73;;
351;SDS011;164;50.784;6.496;2022-10-31T06:36:12;11.70;;;9.25;;
351;SDS011;164;50.784;6.496;2022-10-31T06:38:39;11.90;;;9.13;;
351;SDS011;164;50.784;6.496;2022-10-31T06:41:06;12.90;;;7.40;;
351;SDS011;164;50.784;6.496;2022-10-31T06:43:33;16.25;;;7.85;;
351;SDS011;164;50.784;6.496;2022-10-31T06:46:01;9.40;;;8.93;;
351;SDS011;164;50.784;6.496;2022-10-31T06:48:29;14.07;;;8.65;;
351;SDS011;164;50.784;6.496;2022-10-31T06:50:57;8.35;;;7.65;;
351;SDS011;164;50.784;6.496;2022-10-31T06:53:26;8.85;;;7.60;;
351;SDS011;164;50.784;6.496;2022-10-31T06:55:54;8.90;;;7.97;;
351;SDS011;164;50.784;6.496;2022-10-31T06:58:22;9.50;;;7.78;;
351;SDS011;164;50.784;6.496;2022-10-31T07:00:49;9.57;;;7.20;;
351;SDS011;164;50.784;6.496;2022-10-31T07:03:16;9.18;;;7.55;;
351;SDS011;164;50.784;6.496;2022-10-31T07:05:45;11.25;;;8.10;;
351;SDS011;164;50.784;6.496;2022-10-31T07:08:13;8.85;;;8.35;;
351;SDS011;164;50.784;6.496;2022-10-31T07:10:42;9.82;;;7.78;;
351;SDS011;164;50.784;6.496;2022-10-31T07:13:10;16.27;;;8.60;;
351;SDS011;164;50.784;6.496;2022-10-31T07:15:39;10.45;;;8.73;;
351;SDS011;164;50.784;6.496;2022-10-31T07:18:07;9.75;;;8.73;;
351;SDS011;164;50.784;6.496;2022-10-31T07:20:35;10.45;;;8.15;;
351;SDS011;164;50.784;6.496;2022-10-31T07:23:02;10.88;;;8.95;;
351;SDS011;164;50.784;6.496;2022-10-31T07:25:29;12.20;;;7.78;;
351;SDS011;164;50.784;6.496;2022-10-31T07:27:57;11.25;;;8.50;;
351;SDS011;164;50.784;6.496;2022-10-31T07:30:25;12.60;;;9.32;;
351;SDS011;164;50.784;6.496;2022-10-31T07:32:51;11.13;;;8.63;;
351;SDS011;164;50.784;6.496;2022-10-31T07:35:19;17.70;;;10.80;;
351;SDS011;164;50.784;6.496;2022-10-31T07:37:48;10.98;;;10.20;;
351;SDS011;164;50.784;6.496;2022-10-31T07:40:15;13.63;;;11.23;;
351;SDS011;164;50.784;6.496;2022-10-31T07:42:45;18.65;;;11.90;;
351;SDS011;164;50.784;6.496;2022-10-31T07:45:16;15.93;;;11.35;;
351;SDS011;164;50.784;6.496;2022-10-31T07:47:44;13.32;;;10.85;;
351;SDS011;164;50.784;6.496;2022-10-31T07:50:13;13.40;;;10.80;;
351;SDS011;164;50.784;6.496;2022-10-31T07:52:41;14.50;;;10.73;;
351;SDS011;164;50.784;6.496;2022-10-31T07:55:08;11.90;;;10.85;;
351;SDS011;164;50.784;6.496;2022-10-31T07:57:35;14.80;;;11.43;;
351;SDS011;164;50.784;6.496;2022-10-31T08:00:03;16.55;;;11.18;;
351;SDS011;164;50.784;6.496;2022-10-31T08:02:32;18.48;;;10.98;;
351;SDS011;164;50.784;6.496;2022-10-31T08:04:59;18.40;;;11.60;;
351;SDS011;164;50.784;6.496;2022-10-31T08:07:27;13.35;;;11.45;;
351;SDS011;164;50.784;6.496;2022-10-31T08:09:54;9.88;;;9.40;;
351;SDS011;164;50.784;6.496;2022-10-31T08:12:22;10.52;;;9.32;;
351;SDS011;164;50.784;6.496;2022-10-31T08:14:49;15.70;;;9.75;;
351;SDS011;164;50.784;6.496;2022-10-31T08:17:16;14.68;;;11.23;;
351;SDS011;164;50.784;6.496;2022-10-31T08:19:44;16.00;;;13.25;;
351;SDS011;164;50.784;6.496;2022-10-31T08:22:11;18.92;;;15.10;;
351;SDS011;164;50.784;6.496;2022-10-31T08:24:38;20.38;;;15.07;;
351;SDS011;164;50.784;6.496;2022-10-31T08:27:05;18.70;;;14.50;;
351;SDS011;164;50.784;6.496;2022-10-31T08:29:32;16.23;;;13.90;;
351;SDS011;164;50.784;6.496;2022-10-31T08:31:59;19.95;;;14.95;;
351;SDS011;164;50.784;6.496;2022-10-31T08:34:26;17.92;;;13.60;;
351;SDS011;164;50.784;6.496;2022-10-31T08:36:55;17.40;;;12.88;;
351;SDS011;164;50.784;6.496;2022-10-31T08:39:22;16.77;;;12.75;;
351;SDS011;164;50.784;6.496;2022-10-31T08:41:49;13.27;;;12.02;;
351;SDS011;164;50.784;6.496;2022-10-31T08:44:16;17.50;;;13.18;;
351;SDS011;164;50.784;6.496;2022-10-31T08:46:43;17.13;;;13.88;;
351;SDS011;164;50.784;6.496;2022-10-31T08:49:10;23.27;;;12.88;;
351;SDS011;164;50.784;6.496;2022-10-31T08:51:37;17.95;;;11.95;;
351;SDS011;164;50.784;6.496;2022-10-31T08:54:06;13.48;;;12.38;;
351;SDS011;164;50.784;6.496;2022-10-31T08:56:33;16.08;;;12.13;;
351;SDS011;164;50.784;6.496;2022-10-31T08:59:00;18.70;;;16.35;;
351;SDS011;164;50.784;6.496;2022-10-31T09:01:27;21.48;;;15.75;;
351;SDS011;164;50.784;6.496;2022-10-31T09:03:54;19.10;;;15.10;;
351;SDS011;164;50.784;6.496;2022-10-31T09:06:21;17.00;;;15.00;;
351;SDS011;164;50.784;6.496;2022-10-31T09:08:48;20.00;;;15.85;;
351;SDS011;164;50.784;6.496;2022-10-31T09:11:16;19.80;;;14.93;;
351;SDS011;164;50.784;6.496;2022-10-31T09:13:43;17.52;;;14.43;;
351;SDS011;164;50.784;6.496;2022-10-31T09:16:10;17.70;;;14.93;;
351;SDS011;164;50.784;6.496;2022-10-31T09:18:37;20.85;;;13.85;;
351;SDS011;164;50.784;6.496;2022-10-31T09:21:04;16.50;;;14.80;;
351;SDS011;164;50.784;6.496;2022-10-31T09:23:31;18.48;;;15.60;;
351;SDS011;164;50.784;6.496;2022-10-31T09:25:59;14.02;;;13.43;;
351;SDS011;164;50.784;6.496;2022-10-31T09:28:28;18.80;;;15.38;;
351;SDS011;164;50.784;6.496;2022-10-31T09:30:56;20.15;;;14.20;;
351;SDS011;164;50.784;6.496;2022-10-31T09:33:23;18.45;;;15.23;;
351;SDS011;164;50.784;6.496;2022-10-31T09:35:50;19.67;;;14.60;;
351;SDS011;164;50.784;6.496;2022-10-31T09:38:19;15.40;;;14.05;;
351;SDS011;164;50.784;6.496;2022-10-31T09:40:49;20.27;;;16.85;;
351;SDS011;164;50.784;6.496;2022-10-31T09:43:22;16.63;;;13.68;;
351;SDS011;164;50.784;6.496;2022-10-31T09:45:58;21.90;;;14.38;;
351;SDS011;164;50.784;6.496;2022-10-31T09:48:34;15.82;;;14.20;;
351;SDS011;164;50.784;6.496;2022-10-31T09:51:12;17.95;;;13.27;;
351;SDS011;164;50.784;6.496;2022-10-31T09:53:43;20.65;;;13.80;;
351;SDS011;164;50.784;6.496;2022-10-31T09:56:14;15.68;;;11.50;;
351;SDS011;164;50.784;6.496;2022-10-31T09:58:45;13.38;;;12.32;;
351;SDS011;164;50.784;6.496;2022-10-31T10:01:19;14.40;;;11.00;;
351;SDS011;164;50.784;6.496;2022-10-31T10:03:58;16.23;;;10.43;;
351;SDS011;164;50.784;6.496;2022-10-31T10:06:29;19.52;;;16.25;;
351;SDS011;164;50.784;6.496;2022-10-31T10:08:59;20.15;;;12.90;;
351;SDS011;164;50.784;6.496;2022-10-31T10:11:36;18.70;;;11.73;;
351;SDS011;164;50.784;6.496;2022-10-31T10:14:17;12.88;;;10.38;;
351;SDS011;164;50.784;6.496;2022-10-31T10:16:55;15.45;;;10.80;;
351;SDS011;164;50.784;6.496;2022-10-31T10:19:37;13.27;;;10.73;;
351;SDS011;164;50.784;6.496;2022-10-31T10:22:15;15.25;;;11.30;;
351;SDS011;164;50.784;6.496;2022-10-31T10:24:58;17.85;;;10.60;;
351;SDS011;164;50.784;6.496;2022-10-31T10:27:40;15.98;;;10.55;;
351;SDS011;164;50.784;6.496;2022-10-31T10:30:15;11.93;;;9.23;;
351;SDS011;164;50.784;6.496;2022-10-31T10:32:45;14.02;;;10.82;;
351;SDS011;164;50.784;6.496;2022-10-31T10:35:18;12.02;;;9.02;;
351;SDS011;164;50.784;6.496;2022-10-31T10:37:50;16.67;;;8.77;;
351;SDS011;164;50.784;6.496;2022-10-31T10:40:19;15.95;;;10.45;;
351;SDS011;164;50.784;6.496;2022-10-31T10:42:52;13.82;;;8.80;;
351;SDS011;164;50.784;6.496;2022-10-31T10:45:42;10.15;;;8.15;;
351;SDS011;164;50.784;6.496;2022-10-31T10:48:34;12.48;;;8.40;;
351;SDS011;164;50.784;6.496;2022-10-31T10:51:12;14.70;;;7.35;;
351;SDS011;164;50.784;6.496;2022-10-31T10:53:47;17.05;;;7.63;;
351;SDS011;164;50.784;6.496;2022-10-31T10:56:31;10.55;;;7.53;;
351;SDS011;164;50.784;6.496;2022-10-31T10:59:06;11.27;;;7.10;;
351;SDS011;164;50.784;6.496;2022-10-31T11:01:37;14.63;;;8.57;;
351;SDS011;164;50.784;6.496;2022-10-31T11:04:13;9.38;;;8.23;;
351;SDS011;164;50.784;6.496;2022-10-31T11:06:56;14.63;;;9.75;;
351;SDS011;164;50.784;6.496;2022-10-31T11:09:24;12.80;;;8.57;;
351;SDS011;164;50.784;6.496;2022-10-31T11:11:51;15.77;;;9.20;;
351;SDS011;164;50.784;6.496;2022-10-31T11:14:19;11.60;;;7.95;;
351;SDS011;164;50.784;6.496;2022-10-31T11:16:47;9.88;;;8.23;;
351;SDS011;164;50.784;6.496;2022-10-31T11:19:19;10.70;;;8.90;;
351;SDS011;164;50.784;6.496;2022-10-31T11:21:47;11.95;;;8.98;;
351;SDS011;164;50.784;6.496;2022-10-31T11:24:16;10.98;;;9.20;;
351;SDS011;164;50.784;6.496;2022-10-31T11:26:45;13.88;;;9.32;;
351;SDS011;164;50.784;6.496;2022-10-31T11:29:14;19.52;;;11.40;;
351;SDS011;164;50.784;6.496;2022-10-31T11:31:43;13.80;;;9.57;;
351;SDS011;164;50.784;6.496;2022-10-31T11:34:13;16.70;;;12.65;;
351;SDS011;164;50.784;6.496;2022-10-31T11:36:46;13.35;;;9.90;;
351;SDS011;164;50.784;6.496;2022-10-31T11:39:15;12.23;;;9.52;;
351;SDS011;164;50.784;6.496;2022-10-31T11:41:45;12.80;;;9.00;;
351;SDS011;164;50.784;6.496;2022-10-31T11:44:13;10.23;;;9.73;;
351;SDS011;164;50.784;6.496;2022-10-31T11:46:44;8.65;;;7.93;;
351;SDS011;164;50.784;6.496;2022-10-31T11:49:14;12.70;;;8.50;;
351;SDS011;164;50.784;6.496;2022-10-31T11:51:46;10.35;;;7.93;;
351;SDS011;164;50.784;6.496;2022-10-31T11:54:20;10.20;;;7.82;;
351;SDS011;164;50.784;6.496;2022-10-31T11:56:49;12.52;;;7.35;;
351;SDS011;164;50.784;6.496;2022-10-31T11:59:18;13.07;;;7.10;;
351;SDS011;164;50.784;6.496;2022-10-31T12:01:52;10.80;;;8.38;;
351;SDS011;164;50.784;6.496;2022-10-31T12:04:23;9.05;;;7.15;;
351;SDS011;164;50.784;6.496;2022-10-31T12:07:07;9.90;;;7.35;;
351;SDS011;164;50.784;6.496;2022-10-31T12:09:35;9.55;;;6.97;;
351;SDS011;164;50.784;6.496;2022-10-31T12:12:06;8.18;;;6.32;;
351;SDS011;164;50.784;6.496;2022-10-31T12:14:50;10.27;;;7.53;;
351;SDS011;164;50.784;6.496;2022-10-31T12:17:29;9.73;;;7.28;;
351;SDS011;164;50.784;6.496;2022-10-31T12:20:03;9.07;;;6.80;;
351;SDS011;164;50.784;6.496;2022-10-31T12:22:41;12.18;;;6.32;;
351;SDS011;164;50.784;6.496;2022-10-31T12:25:20;7.90;;;5.65;;
351;SDS011;164;50.784;6.496;2022-10-31T12:28:00;7.35;;;5.85;;
351;SDS011;164;50.784;6.496;2022-10-31T12:30:58;10.10;;;6.80;;
351;SDS011;164;50.784;6.496;2022-10-31T12:33:40;8.65;;;6.50;;
351;SDS011;164;50.784;6.496;2022-10-31T12:36:23;6.65;;;4.82;;
351;SDS011;164;50.784;6.496;2022-10-31T12:39:05;9.75;;;6.95;;
351;SDS011;164;50.784;6.496;2022-10-31T12:41:51;9.73;;;5.47;;
351;SDS011;164;50.784;6.496;2022-10-31T12:44:28;9.57;;;6.55;;
351;SDS011;164;50.784;6.496;2022-10-31T12:47:10;11.98;;;6.05;;
351;SDS011;164;50.784;6.496;2022-10-31T12:49:54;6.85;;;5.65;;
351;SDS011;164;50.784;6.496;2022-10-31T12:52:35;8.00;;;5.93;;
351;SDS011;164;50.784;6.496;2022-10-31T12:55:21;10.57;;;6.47;;
351;SDS011;164;50.784;6.496;2022-10-31T12:57:59;6.78;;;6.40;;
351;SDS011;164;50.784;6.496;2022-10-31T13:00:30;9.40;;;6.13;;
351;SDS011;164;50.784;6.496;2022-10-31T13:03:02;11.57;;;6.82;;
351;SDS011;164;50.784;6.496;2022-10-31T13:05:41;10.07;;;6.07;;
351;SDS011;164;50.784;6.496;2022-10-31T13:08:11;7.15;;;5.43;;
351;SDS011;164;50.784;6.496;2022-10-31T13:10:44;8.25;;;5.35;;
351;SDS011;164;50.784;6.496;2022-10-31T13:13:15;7.00;;;5.75;;
351;SDS011;164;50.784;6.496;2022-10-31T13:15:47;6.07;;;5.40;;
351;SDS011;164;50.784;6.496;2022-10-31T13:18:21;8.20;;;4.97;;
351;SDS011;164;50.784;6.496;2022-10-31T13:20:53;11.15;;;6.15;;
351;SDS011;164;50.784;6.496;2022-10-31T13:23:26;7.25;;;5.10;;
351;SDS011;164;50.784;6.496;2022-10-31T13:25:57;7.57;;;5.57;;
351;SDS011;164;50.784;6.496;2022-10-31T13:28:28;8.65;;;5.85;;
351;SDS011;164;50.784;6.496;2022-10-31T13:31:00;10.77;;;5.32;;
351;SDS011;164;50.784;6.496;2022-10-31T13:33:28;8.07;;;5.43;;
351;SDS011;164;50.784;6.496;2022-10-31T13:36:06;6.97;;;5.35;;
351;SDS011;164;50.784;6.496;2022-10-31T13:38:47;7.72;;;4.65;;
351;SDS011;164;50.784;6.496;2022-10-31T13:41:22;9.80;;;5.25;;
351;SDS011;164;50.784;6.496;2022-10-31T13:44:02;6.45;;;5.40;;
351;SDS011;164;50.784;6.496;2022-10-31T13:46:42;7.20;;;5.20;;
351;SDS011;164;50.784;6.496;2022-10-31T13:52:05;7.68;;;4.90;;
351;SDS011;164;50.784;6.496;2022-10-31T13:54:42;11.20;;;4.97;;
351;SDS011;164;50.784;6.496;2022-10-31T13:57:16;5.57;;;4.95;;
351;SDS011;164;50.784;6.496;2022-10-31T13:59:47;8.15;;;5.30;;
351;SDS011;164;50.784;6.496;2022-10-31T14:02:17;7.75;;;4.95;;
351;SDS011;164;50.784;6.496;2022-10-31T14:04:49;9.95;;;4.93;;
351;SDS011;164;50.784;6.496;2022-10-31T14:07:19;5.88;;;5.18;;
351;SDS011;164;50.784;6.496;2022-10-31T14:09:52;7.00;;;5.93;;
351;SDS011;164;50.784;6.496;2022-10-31T14:12:25;7.43;;;4.82;;
351;SDS011;164;50.784;6.496;2022-10-31T14:14:57;11.68;;;5.32;;
351;SDS011;164;50.784;6.496;2022-10-31T14:17:27;7.85;;;4.97;;
351;SDS011;164;50.784;6.496;2022-10-31T14:20:03;6.07;;;5.43;;
351;SDS011;164;50.784;6.496;2022-10-31T14:22:50;7.03;;;5.20;;
351;SDS011;164;50.784;6.496;2022-10-31T14:25:26;7.22;;;4.80;;
351;SDS011;164;50.784;6.496;2022-10-31T14:27:57;8.93;;;4.60;;
351;SDS011;164;50.784;6.496;2022-10-31T14:30:26;6.50;;;4.93;;
351;SDS011;164;50.784;6.496;2022-10-31T14:32:55;13.63;;;5.15;;
351;SDS011;164;50.784;6.496;2022-10-31T14:35:26;8.77;;;4.82;;
351;SDS011;164;50.784;6.496;2022-10-31T14:38:19;5.78;;;4.55;;
351;SDS011;164;50.784;6.496;2022-10-31T14:41:03;6.28;;;4.97;;
351;SDS011;164;50.784;6.496;2022-10-31T14:43:49;6.47;;;4.75;;
351;SDS011;164;50.784;6.496;2022-10-31T14:46:41;4.63;;;4.30;;
351;SDS011;164;50.784;6.496;2022-10-31T14:49:21;5.78;;;4.78;;
351;SDS011;164;50.784;6.496;2022-10-31T14:51:59;6.57;;;4.43;;
351;SDS011;164;50.784;6.496;2022-10-31T14:54:29;8.32;;;4.47;;
351;SDS011;164;50.784;6.496;2022-10-31T14:56:59;9.07;;;5.10;;
351;SDS011;164;50.784;6.496;2022-10-31T14:59:33;6.10;;;4.28;;
351;SDS011;164;50.784;6.496;2022-10-31T15:02:08;7.07;;;4.53;;
351;SDS011;164;50.784;6.496;2022-10-31T15:04:41;6.18;;;4.55;;
351;SDS011;164;50.784;6.496;2022-10-31T15:07:11;8.38;;;4.80;;
351;SDS011;164;50.784;6.496;2022-10-31T15:09:42;5.70;;;4.43;;
351;SDS011;164;50.784;6.496;2022-10-31T15:12:21;8.02;;;3.78;;
351;SDS011;164;50.784;6.496;2022-10-31T15:14:51;9.90;;;4.47;;
351;SDS011;164;50.784;6.496;2022-10-31T15:17:18;7.38;;;4.85;;
351;SDS011;164;50.784;6.496;2022-10-31T15:19:46;4.93;;;4.20;;
351;SDS011;164;50.784;6.496;2022-10-31T15:22:14;5.80;;;4.15;;
351;SDS011;164;50.784;6.496;2022-10-31T15:24:43;9.75;;;5.32;;
351;SDS011;164;50.784;6.496;2022-10-31T15:27:11;10.00;;;4.80;;
351;SDS011;164;50.784;6.496;2022-10-31T15:29:47;7.13;;;4.38;;
351;SDS011;164;50.784;6.496;2022-10-31T15:32:20;5.40;;;4.60;;
351;SDS011;164;50.784;6.496;2022-10-31T15:34:49;7.03;;;4.50;;
351;SDS011;164;50.784;6.496;2022-10-31T15:37:18;6.40;;;5.50;;
351;SDS011;164;50.784;6.496;2022-10-31T15:39:48;6.10;;;4.50;;
351;SDS011;164;50.784;6.496;2022-10-31T15:42:19;9.13;;;5.15;;
351;SDS011;164;50.784;6.496;2022-10-31T15:44:49;6.22;;;4.78;;
351;SDS011;164;50.784;6.496;2022-10-31T15:47:21;4.70;;;4.40;;
351;SDS011;164;50.784;6.496;2022-10-31T15:49:50;7.18;;;4.80;;
351;SDS011;164;50.784;6.496;2022-10-31T15:52:23;6.55;;;4.85;;
351;SDS011;164;50.784;6.496;2022-10-31T15:54:55;6.95;;;5.07;;
351;SDS011;164;50.784;6.496;2022-10-31T15:57:26;10.48;;;4.90;;
351;SDS011;164;50.784;6.496;2022-10-31T15:59:55;12.13;;;5.38;;
351;SDS011;164;50.784;6.496;2022-10-31T16:02:25;10.40;;;6.45;;